sensor_id;sensor_type;location;lat;lon;timestamp;temperature;humidity
74901;DHT22;63461;51.416;6.758;2023-04-06T00:02:07;5.70;93.20
74901;DHT22;63461;51.416;6.758;2023-04-06T00:05:04;5.70;93.10
74901;DHT22;63461;51.416;6.758;2023-04-06T00:09:02;5.60;93.40
74901;DHT22;63461;51.416;6.758;2023-04-06T00:12:29;5.60;93.70
74901;DHT22;63461;51.416;6.758;2023-04-06T00:15:46;5.60;93.90
74901;DHT22;63461;51.416;6.758;2023-04-06T00:18:55;5.60;94.10
74901;DHT22;63461;51.416;6.758;2023-04-06T00:22:11;5.50;94.00
74901;DHT22;63461;51.416;6.758;2023-04-06T00:25:18;5.50;94.00
74901;DHT22;63461;51.416;6.758;2023-04-06T00:28:32;5.50;94.10
74901;DHT22;63461;51.416;6.758;2023-04-06T00:54:01;5.30;97.10
74901;DHT22;63461;51.416;6.758;2023-04-06T01:00:41;5.20;98.10
74901;DHT22;63461;51.416;6.758;2023-04-06T01:03:14;5.20;98.50
74901;DHT22;63461;51.416;6.758;2023-04-06T01:05:45;5.20;98.60
74901;DHT22;63461;51.416;6.758;2023-04-06T01:23:18;5.00;99.90
74901;DHT22;63461;51.416;6.758;2023-04-06T01:25:46;4.90;99.90
74901;DHT22;63461;51.416;6.758;2023-04-06T01:28:21;4.90;99.90
74901;DHT22;63461;51.416;6.758;2023-04-06T01:31:10;4.90;99.90
74901;DHT22;63461;51.416;6.758;2023-04-06T01:34:21;4.80;99.90
74901;DHT22;63461;51.416;6.758;2023-04-06T01:37:45;4.80;99.90
74901;DHT22;63461;51.416;6.758;2023-04-06T01:40:24;4.80;99.90
74901;DHT22;63461;51.416;6.758;2023-04-06T01:43:14;4.80;99.90
74901;DHT22;63461;51.416;6.758;2023-04-06T01:49:42;4.80;99.90
74901;DHT22;63461;51.416;6.758;2023-04-06T01:52:11;4.70;99.90
74901;DHT22;63461;51.416;6.758;2023-04-06T01:54:49;4.70;99.90
74901;DHT22;63461;51.416;6.758;2023-04-06T01:57:36;4.70;99.90
74901;DHT22;63461;51.416;6.758;2023-04-06T02:00:39;4.70;99.90
74901;DHT22;63461;51.416;6.758;2023-04-06T02:03:08;4.70;99.90
74901;DHT22;63461;51.416;6.758;2023-04-06T02:05:40;4.70;99.90
74901;DHT22;63461;51.416;6.758;2023-04-06T02:08:39;4.60;99.90
74901;DHT22;63461;51.416;6.758;2023-04-06T02:11:17;4.60;99.90
74901;DHT22;63461;51.416;6.758;2023-04-06T02:14:23;4.60;99.90
74901;DHT22;63461;51.416;6.758;2023-04-06T03:21:07;4.40;99.90
74901;DHT22;63461;51.416;6.758;2023-04-06T03:24:36;4.30;99.90
74901;DHT22;63461;51.416;6.758;2023-04-06T03:27:43;4.20;99.90
74901;DHT22;63461;51.416;6.758;2023-04-06T03:30:19;4.20;99.90
74901;DHT22;63461;51.416;6.758;2023-04-06T03:33:00;4.30;99.90
74901;DHT22;63461;51.416;6.758;2023-04-06T03:35:30;4.20;99.90
74901;DHT22;63461;51.416;6.758;2023-04-06T03:37:58;4.20;99.90
74901;DHT22;63461;51.416;6.758;2023-04-06T03:40:27;4.20;99.90
74901;DHT22;63461;51.416;6.758;2023-04-06T03:42:56;4.20;99.90
74901;DHT22;63461;51.416;6.758;2023-04-06T03:45:22;4.20;99.90
74901;DHT22;63461;51.416;6.758;2023-04-06T03:47:53;4.20;99.90
74901;DHT22;63461;51.416;6.758;2023-04-06T03:50:19;4.20;99.90
74901;DHT22;63461;51.416;6.758;2023-04-06T03:52:45;4.20;99.90
74901;DHT22;63461;51.416;6.758;2023-04-06T03:55:11;4.20;99.90
74901;DHT22;63461;51.416;6.758;2023-04-06T03:57:37;4.20;99.90
74901;DHT22;63461;51.416;6.758;2023-04-06T04:00:03;4.20;99.90
74901;DHT22;63461;51.416;6.758;2023-04-06T04:02:40;4.10;99.90
74901;DHT22;63461;51.416;6.758;2023-04-06T04:05:09;4.10;99.90
74901;DHT22;63461;51.416;6.758;2023-04-06T04:07:36;4.10;99.90
74901;DHT22;63461;51.416;6.758;2023-04-06T04:10:03;4.10;99.90
74901;DHT22;63461;51.416;6.758;2023-04-06T04:12:31;4.00;99.90
74901;DHT22;63461;51.416;6.758;2023-04-06T04:15:01;4.10;99.90
74901;DHT22;63461;51.416;6.758;2023-04-06T04:17:30;4.10;99.90
74901;DHT22;63461;51.416;6.758;2023-04-06T04:19:56;4.10;99.90
74901;DHT22;63461;51.416;6.758;2023-04-06T04:22:22;4.10;99.90
74901;DHT22;63461;51.416;6.758;2023-04-06T04:24:48;4.00;99.90
74901;DHT22;63461;51.416;6.758;2023-04-06T04:27:14;4.00;99.90
74901;DHT22;63461;51.416;6.758;2023-04-06T04:29:46;4.00;99.90
74901;DHT22;63461;51.416;6.758;2023-04-06T04:32:22;4.00;99.90
74901;DHT22;63461;51.416;6.758;2023-04-06T04:34:48;4.00;99.90
74901;DHT22;63461;51.416;6.758;2023-04-06T04:37:27;4.00;99.90
74901;DHT22;63461;51.416;6.758;2023-04-06T04:39:55;4.00;99.90
74901;DHT22;63461;51.416;6.758;2023-04-06T04:42:24;4.00;99.90
74901;DHT22;63461;51.416;6.758;2023-04-06T04:44:57;4.00;99.90
74901;DHT22;63461;51.416;6.758;2023-04-06T04:47:42;4.00;99.90
74901;DHT22;63461;51.416;6.758;2023-04-06T04:50:24;4.00;99.90
74901;DHT22;63461;51.416;6.758;2023-04-06T04:52:55;3.90;99.90
74901;DHT22;63461;51.416;6.758;2023-04-06T04:55:23;3.90;99.90
74901;DHT22;63461;51.416;6.758;2023-04-06T04:57:53;3.90;99.90
74901;DHT22;63461;51.416;6.758;2023-04-06T05:00:24;4.00;99.90
74901;DHT22;63461;51.416;6.758;2023-04-06T05:02:54;4.00;99.90
74901;DHT22;63461;51.416;6.758;2023-04-06T05:05:24;4.00;99.90
74901;DHT22;63461;51.416;6.758;2023-04-06T05:07:51;4.10;99.90
74901;DHT22;63461;51.416;6.758;2023-04-06T05:10:39;4.00;99.90
74901;DHT22;63461;51.416;6.758;2023-04-06T05:13:05;4.10;99.90
74901;DHT22;63461;51.416;6.758;2023-04-06T05:15:31;4.10;99.90
74901;DHT22;63461;51.416;6.758;2023-04-06T05:18:06;4.10;99.90
74901;DHT22;63461;51.416;6.758;2023-04-06T05:20:34;4.10;99.90
74901;DHT22;63461;51.416;6.758;2023-04-06T05:23:00;4.10;99.90
74901;DHT22;63461;51.416;6.758;2023-04-06T05:25:26;4.10;99.90
74901;DHT22;63461;51.416;6.758;2023-04-06T05:27:56;4.10;99.90
74901;DHT22;63461;51.416;6.758;2023-04-06T05:30:29;4.10;99.90
74901;DHT22;63461;51.416;6.758;2023-04-06T05:32:55;4.20;99.90
74901;DHT22;63461;51.416;6.758;2023-04-06T05:35:24;4.20;99.90
74901;DHT22;63461;51.416;6.758;2023-04-06T05:37:54;4.20;99.90
74901;DHT22;63461;51.416;6.758;2023-04-06T05:40:23;4.20;99.90
74901;DHT22;63461;51.416;6.758;2023-04-06T05:42:49;4.20;99.90
74901;DHT22;63461;51.416;6.758;2023-04-06T05:45:16;4.30;99.90
74901;DHT22;63461;51.416;6.758;2023-04-06T05:47:50;4.30;99.90
74901;DHT22;63461;51.416;6.758;2023-04-06T05:50:22;4.30;99.90
74901;DHT22;63461;51.416;6.758;2023-04-06T05:52:48;4.30;99.90
74901;DHT22;63461;51.416;6.758;2023-04-06T05:55:17;4.30;99.90
74901;DHT22;63461;51.416;6.758;2023-04-06T05:57:47;4.30;99.90
74901;DHT22;63461;51.416;6.758;2023-04-06T06:00:16;4.40;99.90
74901;DHT22;63461;51.416;6.758;2023-04-06T06:02:55;4.40;99.90
74901;DHT22;63461;51.416;6.758;2023-04-06T06:05:26;4.40;99.90
74901;DHT22;63461;51.416;6.758;2023-04-06T06:07:52;4.50;99.90
74901;DHT22;63461;51.416;6.758;2023-04-06T06:10:18;4.50;99.90
74901;DHT22;63461;51.416;6.758;2023-04-06T06:12:44;4.50;99.90
74901;DHT22;63461;51.416;6.758;2023-04-06T06:15:11;4.60;99.90
74901;DHT22;63461;51.416;6.758;2023-04-06T06:17:42;4.60;99.90
74901;DHT22;63461;51.416;6.758;2023-04-06T06:20:08;4.70;99.90
74901;DHT22;63461;51.416;6.758;2023-04-06T06:22:35;4.70;99.90
74901;DHT22;63461;51.416;6.758;2023-04-06T06:25:03;4.80;99.90
74901;DHT22;63461;51.416;6.758;2023-04-06T06:27:29;4.80;99.90
74901;DHT22;63461;51.416;6.758;2023-04-06T06:29:55;4.80;99.90
74901;DHT22;63461;51.416;6.758;2023-04-06T06:32:22;4.90;99.90
74901;DHT22;63461;51.416;6.758;2023-04-06T06:34:51;5.00;99.90
74901;DHT22;63461;51.416;6.758;2023-04-06T06:37:17;5.00;99.90
74901;DHT22;63461;51.416;6.758;2023-04-06T06:39:43;5.10;99.90
74901;DHT22;63461;51.416;6.758;2023-04-06T06:42:09;5.10;99.90
74901;DHT22;63461;51.416;6.758;2023-04-06T06:44:52;5.20;99.90
74901;DHT22;63461;51.416;6.758;2023-04-06T06:47:18;5.20;99.90
74901;DHT22;63461;51.416;6.758;2023-04-06T06:49:44;5.30;99.90
74901;DHT22;63461;51.416;6.758;2023-04-06T06:52:09;5.30;99.90
74901;DHT22;63461;51.416;6.758;2023-04-06T06:54:35;5.40;99.90
74901;DHT22;63461;51.416;6.758;2023-04-06T06:57:01;5.40;99.90
74901;DHT22;63461;51.416;6.758;2023-04-06T06:59:27;5.50;99.90
74901;DHT22;63461;51.416;6.758;2023-04-06T07:01:53;5.50;99.90
74901;DHT22;63461;51.416;6.758;2023-04-06T07:04:19;5.60;99.90
74901;DHT22;63461;51.416;6.758;2023-04-06T07:06:45;5.70;99.90
74901;DHT22;63461;51.416;6.758;2023-04-06T07:09:11;5.70;99.90
74901;DHT22;63461;51.416;6.758;2023-04-06T07:11:37;5.80;99.90
74901;DHT22;63461;51.416;6.758;2023-04-06T07:14:03;5.90;99.90
74901;DHT22;63461;51.416;6.758;2023-04-06T07:16:28;6.00;99.90
74901;DHT22;63461;51.416;6.758;2023-04-06T07:18:54;6.10;99.90
74901;DHT22;63461;51.416;6.758;2023-04-06T07:21:21;6.20;99.90
74901;DHT22;63461;51.416;6.758;2023-04-06T07:23:47;6.30;99.90
74901;DHT22;63461;51.416;6.758;2023-04-06T07:26:14;6.40;99.90
74901;DHT22;63461;51.416;6.758;2023-04-06T07:28:40;6.50;99.90
74901;DHT22;63461;51.416;6.758;2023-04-06T07:31:07;6.60;99.90
74901;DHT22;63461;51.416;6.758;2023-04-06T07:33:33;6.60;99.90
74901;DHT22;63461;51.416;6.758;2023-04-06T07:35:59;6.60;99.90
74901;DHT22;63461;51.416;6.758;2023-04-06T07:38:25;6.60;99.90
74901;DHT22;63461;51.416;6.758;2023-04-06T07:40:51;6.70;99.90
74901;DHT22;63461;51.416;6.758;2023-04-06T07:43:18;6.70;99.80
74901;DHT22;63461;51.416;6.758;2023-04-06T07:45:43;6.70;99.90
74901;DHT22;63461;51.416;6.758;2023-04-06T07:48:10;6.80;99.10
74901;DHT22;63461;51.416;6.758;2023-04-06T07:50:37;7.00;99.30
74901;DHT22;63461;51.416;6.758;2023-04-06T07:53:04;7.10;98.90
74901;DHT22;63461;51.416;6.758;2023-04-06T07:55:31;7.20;98.10
74901;DHT22;63461;51.416;6.758;2023-04-06T07:57:56;7.30;98.40
74901;DHT22;63461;51.416;6.758;2023-04-06T08:00:22;7.40;98.60
74901;DHT22;63461;51.416;6.758;2023-04-06T08:02:48;7.50;97.70
74901;DHT22;63461;51.416;6.758;2023-04-06T08:05:14;7.70;97.90
74901;DHT22;63461;51.416;6.758;2023-04-06T08:07:40;7.80;97.50
74901;DHT22;63461;51.416;6.758;2023-04-06T08:10:07;7.90;97.40
74901;DHT22;63461;51.416;6.758;2023-04-06T08:12:36;8.00;95.90
74901;DHT22;63461;51.416;6.758;2023-04-06T08:15:02;8.20;99.90
74901;DHT22;63461;51.416;6.758;2023-04-06T08:17:29;8.50;98.40
74901;DHT22;63461;51.416;6.758;2023-04-06T08:19:56;8.30;96.20
74901;DHT22;63461;51.416;6.758;2023-04-06T08:22:22;8.30;96.10
74901;DHT22;63461;51.416;6.758;2023-04-06T08:24:48;8.30;95.10
74901;DHT22;63461;51.416;6.758;2023-04-06T08:27:14;8.40;94.60
74901;DHT22;63461;51.416;6.758;2023-04-06T08:29:40;8.40;94.40
74901;DHT22;63461;51.416;6.758;2023-04-06T08:32:06;8.40;95.00
74901;DHT22;63461;51.416;6.758;2023-04-06T08:34:33;8.40;94.70
74901;DHT22;63461;51.416;6.758;2023-04-06T08:36:59;8.50;94.30
74901;DHT22;63461;51.416;6.758;2023-04-06T08:39:25;8.50;93.20
74901;DHT22;63461;51.416;6.758;2023-04-06T08:41:53;8.60;93.30
74901;DHT22;63461;51.416;6.758;2023-04-06T08:44:22;8.70;93.10
74901;DHT22;63461;51.416;6.758;2023-04-06T08:46:48;8.70;92.80
74901;DHT22;63461;51.416;6.758;2023-04-06T08:49:16;8.80;92.80
74901;DHT22;63461;51.416;6.758;2023-04-06T08:51:42;8.80;92.20
74901;DHT22;63461;51.416;6.758;2023-04-06T08:54:08;8.90;92.60
74901;DHT22;63461;51.416;6.758;2023-04-06T08:56:38;8.90;92.40
74901;DHT22;63461;51.416;6.758;2023-04-06T08:59:05;9.00;92.40
74901;DHT22;63461;51.416;6.758;2023-04-06T09:01:33;9.20;92.00
74901;DHT22;63461;51.416;6.758;2023-04-06T09:04:02;9.30;91.70
74901;DHT22;63461;51.416;6.758;2023-04-06T09:06:31;9.40;91.50
74901;DHT22;63461;51.416;6.758;2023-04-06T09:08:57;9.50;91.20
74901;DHT22;63461;51.416;6.758;2023-04-06T09:11:23;9.60;91.00
74901;DHT22;63461;51.416;6.758;2023-04-06T09:13:56;9.70;90.90
74901;DHT22;63461;51.416;6.758;2023-04-06T09:16:23;9.80;90.50
74901;DHT22;63461;51.416;6.758;2023-04-06T09:18:49;9.90;90.40
74901;DHT22;63461;51.416;6.758;2023-04-06T09:21:19;9.90;90.10
74901;DHT22;63461;51.416;6.758;2023-04-06T09:23:45;9.90;89.90
74901;DHT22;63461;51.416;6.758;2023-04-06T09:26:16;10.00;89.40
74901;DHT22;63461;51.416;6.758;2023-04-06T09:31:15;10.20;87.50
74901;DHT22;63461;51.416;6.758;2023-04-06T09:33:44;10.30;86.80
74901;DHT22;63461;51.416;6.758;2023-04-06T09:36:10;10.40;87.50
74901;DHT22;63461;51.416;6.758;2023-04-06T09:38:58;10.50;86.80
74901;DHT22;63461;51.416;6.758;2023-04-06T09:41:30;10.60;86.10
74901;DHT22;63461;51.416;6.758;2023-04-06T09:44:06;10.70;86.80
74901;DHT22;63461;51.416;6.758;2023-04-06T09:46:36;10.80;87.40
74901;DHT22;63461;51.416;6.758;2023-04-06T09:49:03;10.80;84.50
74901;DHT22;63461;51.416;6.758;2023-04-06T09:51:32;10.80;84.30
74901;DHT22;63461;51.416;6.758;2023-04-06T09:54:01;10.90;86.10
74901;DHT22;63461;51.416;6.758;2023-04-06T09:56:34;11.00;84.00
74901;DHT22;63461;51.416;6.758;2023-04-06T09:59:08;11.10;84.70
74901;DHT22;63461;51.416;6.758;2023-04-06T10:01:36;11.10;84.40
74901;DHT22;63461;51.416;6.758;2023-04-06T10:04:13;11.20;82.70
74901;DHT22;63461;51.416;6.758;2023-04-06T10:06:44;11.20;83.00
74901;DHT22;63461;51.416;6.758;2023-04-06T10:09:14;11.20;81.70
74901;DHT22;63461;51.416;6.758;2023-04-06T10:11:41;11.30;82.70
74901;DHT22;63461;51.416;6.758;2023-04-06T10:14:07;11.20;82.40
74901;DHT22;63461;51.416;6.758;2023-04-06T10:16:33;11.30;82.80
74901;DHT22;63461;51.416;6.758;2023-04-06T10:19:10;11.30;84.30
74901;DHT22;63461;51.416;6.758;2023-04-06T10:21:38;11.40;85.50
74901;DHT22;63461;51.416;6.758;2023-04-06T10:24:08;11.50;83.70
74901;DHT22;63461;51.416;6.758;2023-04-06T10:26:36;11.50;83.70
74901;DHT22;63461;51.416;6.758;2023-04-06T10:29:05;11.60;82.80
74901;DHT22;63461;51.416;6.758;2023-04-06T10:31:31;11.70;83.70
74901;DHT22;63461;51.416;6.758;2023-04-06T10:33:59;11.80;82.90
74901;DHT22;63461;51.416;6.758;2023-04-06T10:36:27;11.80;82.50
74901;DHT22;63461;51.416;6.758;2023-04-06T10:38:59;11.90;82.60
74901;DHT22;63461;51.416;6.758;2023-04-06T10:41:32;11.90;83.30
74901;DHT22;63461;51.416;6.758;2023-04-06T10:43:59;12.00;83.50
74901;DHT22;63461;51.416;6.758;2023-04-06T10:46:31;12.10;84.00
74901;DHT22;63461;51.416;6.758;2023-04-06T10:48:57;12.10;83.50
74901;DHT22;63461;51.416;6.758;2023-04-06T10:51:28;12.20;83.20
74901;DHT22;63461;51.416;6.758;2023-04-06T10:53:54;12.20;82.60
74901;DHT22;63461;51.416;6.758;2023-04-06T10:56:24;12.30;82.60
74901;DHT22;63461;51.416;6.758;2023-04-06T10:58:54;12.30;82.40
74901;DHT22;63461;51.416;6.758;2023-04-06T11:01:24;12.30;83.10
74901;DHT22;63461;51.416;6.758;2023-04-06T11:03:53;12.30;83.10
74901;DHT22;63461;51.416;6.758;2023-04-06T11:06:24;12.30;83.70
74901;DHT22;63461;51.416;6.758;2023-04-06T11:08:51;12.30;84.00
74901;DHT22;63461;51.416;6.758;2023-04-06T11:11:19;12.40;84.40
74901;DHT22;63461;51.416;6.758;2023-04-06T11:13:46;12.50;83.70
74901;DHT22;63461;51.416;6.758;2023-04-06T11:16:18;12.60;83.50
74901;DHT22;63461;51.416;6.758;2023-04-06T11:19:00;12.60;83.10
74901;DHT22;63461;51.416;6.758;2023-04-06T11:21:39;12.60;83.00
74901;DHT22;63461;51.416;6.758;2023-04-06T11:26:48;12.60;84.50
74901;DHT22;63461;51.416;6.758;2023-04-06T11:29:20;12.70;85.60
74901;DHT22;63461;51.416;6.758;2023-04-06T11:34:17;12.70;85.40
74901;DHT22;63461;51.416;6.758;2023-04-06T11:36:45;12.70;84.60
74901;DHT22;63461;51.416;6.758;2023-04-06T11:39:12;12.60;85.70
74901;DHT22;63461;51.416;6.758;2023-04-06T11:41:39;12.60;86.90
74901;DHT22;63461;51.416;6.758;2023-04-06T11:44:05;12.60;87.30
74901;DHT22;63461;51.416;6.758;2023-04-06T11:46:32;12.60;88.30
74901;DHT22;63461;51.416;6.758;2023-04-06T11:48:59;12.60;89.50
74901;DHT22;63461;51.416;6.758;2023-04-06T11:51:26;12.60;90.50
74901;DHT22;63461;51.416;6.758;2023-04-06T11:53:53;12.70;90.20
74901;DHT22;63461;51.416;6.758;2023-04-06T11:56:29;12.70;90.20
74901;DHT22;63461;51.416;6.758;2023-04-06T11:58:58;12.70;90.10
74901;DHT22;63461;51.416;6.758;2023-04-06T12:01:28;12.70;89.40
74901;DHT22;63461;51.416;6.758;2023-04-06T12:03:54;12.70;89.80
74901;DHT22;63461;51.416;6.758;2023-04-06T12:06:19;12.90;89.10
74901;DHT22;63461;51.416;6.758;2023-04-06T12:08:45;12.90;87.30
74901;DHT22;63461;51.416;6.758;2023-04-06T12:11:11;12.70;87.70
74901;DHT22;63461;51.416;6.758;2023-04-06T12:13:37;12.80;87.80
74901;DHT22;63461;51.416;6.758;2023-04-06T12:16:03;12.90;87.20
74901;DHT22;63461;51.416;6.758;2023-04-06T12:18:30;13.00;87.80
74901;DHT22;63461;51.416;6.758;2023-04-06T12:20:56;13.00;86.60
74901;DHT22;63461;51.416;6.758;2023-04-06T12:23:21;13.10;87.00
74901;DHT22;63461;51.416;6.758;2023-04-06T12:25:47;13.10;86.50
74901;DHT22;63461;51.416;6.758;2023-04-06T12:28:13;13.10;87.00
74901;DHT22;63461;51.416;6.758;2023-04-06T12:30:39;13.00;87.50
74901;DHT22;63461;51.416;6.758;2023-04-06T12:33:09;13.00;87.90
74901;DHT22;63461;51.416;6.758;2023-04-06T12:35:36;13.10;87.80
74901;DHT22;63461;51.416;6.758;2023-04-06T12:38:02;13.20;88.00
74901;DHT22;63461;51.416;6.758;2023-04-06T12:40:28;13.20;87.20
74901;DHT22;63461;51.416;6.758;2023-04-06T12:42:57;13.20;88.00
74901;DHT22;63461;51.416;6.758;2023-04-06T12:45:25;13.20;86.80
74901;DHT22;63461;51.416;6.758;2023-04-06T12:47:50;13.20;87.10
74901;DHT22;63461;51.416;6.758;2023-04-06T12:50:16;13.20;86.00
74901;DHT22;63461;51.416;6.758;2023-04-06T12:52:42;13.10;87.00
74901;DHT22;63461;51.416;6.758;2023-04-06T12:55:08;13.10;85.80
74901;DHT22;63461;51.416;6.758;2023-04-06T12:57:35;13.00;86.10
74901;DHT22;63461;51.416;6.758;2023-04-06T13:00:00;13.00;86.20
74901;DHT22;63461;51.416;6.758;2023-04-06T13:02:27;13.10;86.70
74901;DHT22;63461;51.416;6.758;2023-04-06T13:04:53;13.00;87.00
74901;DHT22;63461;51.416;6.758;2023-04-06T13:07:18;13.00;87.30
74901;DHT22;63461;51.416;6.758;2023-04-06T13:09:44;12.70;88.90
74901;DHT22;63461;51.416;6.758;2023-04-06T13:12:15;12.70;88.80
74901;DHT22;63461;51.416;6.758;2023-04-06T13:14:43;12.70;89.50
74901;DHT22;63461;51.416;6.758;2023-04-06T13:17:09;12.60;89.30
74901;DHT22;63461;51.416;6.758;2023-04-06T13:19:35;12.60;90.30
74901;DHT22;63461;51.416;6.758;2023-04-06T13:22:01;12.60;90.70
74901;DHT22;63461;51.416;6.758;2023-04-06T13:24:27;12.70;90.40
74901;DHT22;63461;51.416;6.758;2023-04-06T13:26:53;12.80;90.20
74901;DHT22;63461;51.416;6.758;2023-04-06T13:29:19;12.90;90.40
74901;DHT22;63461;51.416;6.758;2023-04-06T13:31:45;12.80;90.00
74901;DHT22;63461;51.416;6.758;2023-04-06T13:34:10;12.80;90.10
74901;DHT22;63461;51.416;6.758;2023-04-06T13:36:36;12.90;90.40
74901;DHT22;63461;51.416;6.758;2023-04-06T13:39:02;12.90;90.60
74901;DHT22;63461;51.416;6.758;2023-04-06T13:41:28;12.90;91.20
74901;DHT22;63461;51.416;6.758;2023-04-06T13:43:54;12.90;91.30
74901;DHT22;63461;51.416;6.758;2023-04-06T13:46:21;12.80;92.20
74901;DHT22;63461;51.416;6.758;2023-04-06T13:48:47;12.70;92.90
74901;DHT22;63461;51.416;6.758;2023-04-06T13:51:14;12.60;93.80
74901;DHT22;63461;51.416;6.758;2023-04-06T13:53:40;12.50;94.70
74901;DHT22;63461;51.416;6.758;2023-04-06T13:56:07;12.50;95.90
74901;DHT22;63461;51.416;6.758;2023-04-06T13:58:33;12.50;96.80
74901;DHT22;63461;51.416;6.758;2023-04-06T14:01:07;12.60;97.50
74901;DHT22;63461;51.416;6.758;2023-04-06T14:03:37;12.50;98.50
74901;DHT22;63461;51.416;6.758;2023-04-06T14:06:12;12.50;99.50
74901;DHT22;63461;51.416;6.758;2023-04-06T14:08:38;12.30;99.90
74901;DHT22;63461;51.416;6.758;2023-04-06T14:11:04;12.10;99.90
74901;DHT22;63461;51.416;6.758;2023-04-06T14:13:30;12.00;99.90
74901;DHT22;63461;51.416;6.758;2023-04-06T14:15:55;12.00;99.90
74901;DHT22;63461;51.416;6.758;2023-04-06T14:18:22;12.00;99.90
74901;DHT22;63461;51.416;6.758;2023-04-06T14:20:55;12.00;99.90
74901;DHT22;63461;51.416;6.758;2023-04-06T14:23:21;12.10;99.90
74901;DHT22;63461;51.416;6.758;2023-04-06T14:25:47;12.20;99.90
74901;DHT22;63461;51.416;6.758;2023-04-06T14:28:13;12.40;99.90
74901;DHT22;63461;51.416;6.758;2023-04-06T14:30:41;12.20;99.90
74901;DHT22;63461;51.416;6.758;2023-04-06T14:33:06;12.30;99.90
74901;DHT22;63461;51.416;6.758;2023-04-06T14:35:32;12.20;99.90
74901;DHT22;63461;51.416;6.758;2023-04-06T14:37:58;12.10;99.90
74901;DHT22;63461;51.416;6.758;2023-04-06T14:40:24;12.20;99.90
74901;DHT22;63461;51.416;6.758;2023-04-06T14:42:50;12.30;99.90
74901;DHT22;63461;51.416;6.758;2023-04-06T14:45:17;12.30;99.90
74901;DHT22;63461;51.416;6.758;2023-04-06T14:47:45;12.20;99.90
74901;DHT22;63461;51.416;6.758;2023-04-06T14:50:10;12.00;99.90
74901;DHT22;63461;51.416;6.758;2023-04-06T14:52:36;12.00;99.90
74901;DHT22;63461;51.416;6.758;2023-04-06T14:55:02;12.00;99.90
74901;DHT22;63461;51.416;6.758;2023-04-06T14:57:29;11.80;99.90
74901;DHT22;63461;51.416;6.758;2023-04-06T14:59:56;11.90;99.90
74901;DHT22;63461;51.416;6.758;2023-04-06T15:02:22;11.80;99.90
74901;DHT22;63461;51.416;6.758;2023-04-06T15:04:48;11.80;99.90
74901;DHT22;63461;51.416;6.758;2023-04-06T15:07:13;11.70;99.90
74901;DHT22;63461;51.416;6.758;2023-04-06T15:09:47;11.60;99.90
74901;DHT22;63461;51.416;6.758;2023-04-06T15:12:23;11.70;99.90
74901;DHT22;63461;51.416;6.758;2023-04-06T15:14:49;11.60;99.90
74901;DHT22;63461;51.416;6.758;2023-04-06T15:17:15;11.50;99.90
74901;DHT22;63461;51.416;6.758;2023-04-06T15:19:41;11.40;99.90
74901;DHT22;63461;51.416;6.758;2023-04-06T15:22:07;11.30;99.90
74901;DHT22;63461;51.416;6.758;2023-04-06T15:24:32;11.20;99.90
74901;DHT22;63461;51.416;6.758;2023-04-06T15:26:58;11.10;99.90
74901;DHT22;63461;51.416;6.758;2023-04-06T15:29:35;11.10;99.90
74901;DHT22;63461;51.416;6.758;2023-04-06T15:32:24;11.10;99.90
74901;DHT22;63461;51.416;6.758;2023-04-06T15:35:19;11.20;99.90
74901;DHT22;63461;51.416;6.758;2023-04-06T15:37:44;11.10;99.90
74901;DHT22;63461;51.416;6.758;2023-04-06T15:40:11;11.10;99.90
74901;DHT22;63461;51.416;6.758;2023-04-06T15:42:39;11.00;99.90
74901;DHT22;63461;51.416;6.758;2023-04-06T15:45:14;10.90;99.90
74901;DHT22;63461;51.416;6.758;2023-04-06T15:47:44;11.00;99.90
74901;DHT22;63461;51.416;6.758;2023-04-06T15:50:12;11.10;99.90
74901;DHT22;63461;51.416;6.758;2023-04-06T15:52:43;11.20;99.90
74901;DHT22;63461;51.416;6.758;2023-04-06T15:55:09;10.90;99.90
74901;DHT22;63461;51.416;6.758;2023-04-06T15:57:35;10.90;99.90
74901;DHT22;63461;51.416;6.758;2023-04-06T16:00:01;10.80;99.90
74901;DHT22;63461;51.416;6.758;2023-04-06T16:02:27;10.80;99.90
74901;DHT22;63461;51.416;6.758;2023-04-06T16:04:57;10.70;99.90
74901;DHT22;63461;51.416;6.758;2023-04-06T16:07:25;10.60;99.90
74901;DHT22;63461;51.416;6.758;2023-04-06T16:09:51;10.60;99.90
74901;DHT22;63461;51.416;6.758;2023-04-06T16:12:17;10.50;99.90
74901;DHT22;63461;51.416;6.758;2023-04-06T16:14:43;10.50;99.90
74901;DHT22;63461;51.416;6.758;2023-04-06T16:17:09;10.60;99.90
74901;DHT22;63461;51.416;6.758;2023-04-06T16:19:35;10.60;99.90
74901;DHT22;63461;51.416;6.758;2023-04-06T16:22:01;10.60;99.90
74901;DHT22;63461;51.416;6.758;2023-04-06T16:24:27;10.60;99.90
74901;DHT22;63461;51.416;6.758;2023-04-06T16:26:53;10.50;99.90
74901;DHT22;63461;51.416;6.758;2023-04-06T16:32:31;10.30;99.90
74901;DHT22;63461;51.416;6.758;2023-04-06T16:35:20;10.20;99.90
74901;DHT22;63461;51.416;6.758;2023-04-06T16:37:48;10.20;99.90
74901;DHT22;63461;51.416;6.758;2023-04-06T16:40:14;10.30;99.90
74901;DHT22;63461;51.416;6.758;2023-04-06T16:42:44;10.30;99.90
74901;DHT22;63461;51.416;6.758;2023-04-06T16:45:25;10.30;99.90
74901;DHT22;63461;51.416;6.758;2023-04-06T16:47:51;10.20;99.90
74901;DHT22;63461;51.416;6.758;2023-04-06T16:50:17;10.30;99.90
74901;DHT22;63461;51.416;6.758;2023-04-06T16:52:43;10.30;99.90
74901;DHT22;63461;51.416;6.758;2023-04-06T16:55:09;10.30;99.90
74901;DHT22;63461;51.416;6.758;2023-04-06T16:57:51;10.30;99.90
74901;DHT22;63461;51.416;6.758;2023-04-06T17:01:23;10.30;99.90
74901;DHT22;63461;51.416;6.758;2023-04-06T17:03:50;10.30;99.90
74901;DHT22;63461;51.416;6.758;2023-04-06T17:06:16;10.30;99.90
74901;DHT22;63461;51.416;6.758;2023-04-06T17:08:43;10.20;99.90
74901;DHT22;63461;51.416;6.758;2023-04-06T17:11:09;10.20;99.90
74901;DHT22;63461;51.416;6.758;2023-04-06T17:13:36;10.30;99.90
74901;DHT22;63461;51.416;6.758;2023-04-06T17:16:02;10.10;99.90
74901;DHT22;63461;51.416;6.758;2023-04-06T17:18:28;10.10;99.90
74901;DHT22;63461;51.416;6.758;2023-04-06T17:20:56;10.20;99.90
74901;DHT22;63461;51.416;6.758;2023-04-06T17:23:22;10.10;99.90
74901;DHT22;63461;51.416;6.758;2023-04-06T17:25:50;9.90;99.90
74901;DHT22;63461;51.416;6.758;2023-04-06T17:28:16;10.10;99.90
74901;DHT22;63461;51.416;6.758;2023-04-06T17:30:42;10.10;99.90
74901;DHT22;63461;51.416;6.758;2023-04-06T17:33:08;10.10;99.90
74901;DHT22;63461;51.416;6.758;2023-04-06T17:35:34;10.00;99.90
74901;DHT22;63461;51.416;6.758;2023-04-06T17:38:00;10.00;99.90
74901;DHT22;63461;51.416;6.758;2023-04-06T17:40:26;10.00;99.90
74901;DHT22;63461;51.416;6.758;2023-04-06T17:42:52;9.90;99.90
74901;DHT22;63461;51.416;6.758;2023-04-06T17:45:18;10.00;99.90
74901;DHT22;63461;51.416;6.758;2023-04-06T17:47:44;9.90;99.90
74901;DHT22;63461;51.416;6.758;2023-04-06T17:50:10;9.90;99.90
74901;DHT22;63461;51.416;6.758;2023-04-06T17:52:36;10.10;99.90
74901;DHT22;63461;51.416;6.758;2023-04-06T17:55:02;9.90;99.90
74901;DHT22;63461;51.416;6.758;2023-04-06T17:57:28;9.90;99.90
74901;DHT22;63461;51.416;6.758;2023-04-06T17:59:54;9.90;99.90